This is the latest recevied weather packets stored in our database for station/object K4ROM-1. If no packets are shown the sender has not sent any weather packets the latest 10 day(s).
| Time | Temp. | Humidity | Pressure | Rain* | Wind** | Luminosity | Snow |
|---|---|---|---|---|---|---|---|
| 1777876203 | 10° C | 75% | 1018.2 hPa | 0 mm | 0 m/s | - | - |
| 1777875603 | 10.56° C | 73% | 1018.1 hPa | 0 mm | 0 m/s | - | - |
| 1777875003 | 9.44° C | 77% | 1018.1 hPa | 0 mm | 0 m/s | - | - |
| 1777874404 | 8.89° C | 79% | 1018 hPa | 0 mm | 0 m/s | - | - |
| 1777873802 | 8.89° C | 79% | 1017.9 hPa | 0 mm | 0 m/s | - | - |
| 1777873204 | 8.89° C | 79% | 1017.9 hPa | 0 mm | 0 m/s | - | - |
| 1777872603 | 8.89° C | 79% | 1017.9 hPa | 0 mm | 0 m/s | - | - |
| 1777872003 | 9.44° C | 79% | 1018 hPa | 0 mm | 0 m/s | - | - |
| 1777871403 | 10° C | 78% | 1018.1 hPa | 0 mm | 0 m/s | - | - |
| 1777870803 | 10.56° C | 75% | 1018.1 hPa | 0 mm | 0 m/s | - | - |
| 1777870203 | 10.56° C | 72% | 1018.4 hPa | 0 mm | 0 m/s | - | - |
| 1777869603 | 10.56° C | 72% | 1018.3 hPa | 0 mm | 0 m/s | - | - |
| 1777869003 | 11.11° C | 70% | 1018.5 hPa | 0 mm | 0 m/s | - | - |
| 1777868403 | 11.11° C | 69% | 1018 hPa | 0 mm | 0 m/s | - | - |
| 1777867803 | 11.11° C | 69% | 1018.3 hPa | 0 mm | 0 m/s | - | - |
| 1777867203 | 11.11° C | 69% | 1018.2 hPa | 0 mm | 0 m/s | - | - |
| 1777866603 | 11.11° C | 69% | 1018.5 hPa | 0 mm | 0 m/s | - | - |
| 1777866004 | 11.11° C | 69% | 1018.6 hPa | 0 mm | 0 m/s | - | - |
| 1777865404 | 10.56° C | 70% | 1018.3 hPa | 0 mm | 0 m/s | - | - |
| 1777864802 | 10° C | 72% | 1018.6 hPa | 0 mm | 0 m/s | - | - |
| 1777864204 | 10° C | 72% | 1018.4 hPa | 0 mm | 0 m/s | - | - |
| 1777863602 | 10° C | 71% | 1018.4 hPa | 0 mm | 0 m/s | - | - |
| 1777863003 | 10° C | 70% | 1018.1 hPa | 0 mm | 0 m/s | - | - |
| 1777862403 | 10.56° C | 68% | 1018.2 hPa | 0 mm | 0 m/s | - | - |
| 1777861803 | 11.11° C | 67% | 1018 hPa | 0 mm | 0 m/s | - | - |
* Rain latest hour (hover to see other rain measurements)
** Current wind speed in m/s (hover to see current wind gust speed)